Time;durP1;ratioP1;P1;durP2;ratioP2;P2;SDS_P1;SDS_P2;PMS_P1;PMS_P2;Temp;Humidity;BMP_temperature;BMP_pressure;BME280_temperature;BME280_humidity;BME280_pressure;Samples;Min_cycle;Max_cycle;Signal;HPM_P1;HPM_P2
2023/07/20 00:00:12;;;;;;;6.40;3.10;;;20.50;73.60;;;;;;5015629;28;20992;-70
2023/07/20 00:02:40;;;;;;;5.70;3.53;;;20.50;73.50;;;;;;5015654;28;20953;-70
2023/07/20 00:05:07;;;;;;;5.23;3.57;;;20.40;73.80;;;;;;5015359;28;20867;-70
2023/07/20 00:07:34;;;;;;;9.77;3.70;;;20.40;74.10;;;;;;5015465;28;20459;-70
2023/07/20 00:10:01;;;;;;;5.17;3.50;;;20.30;74.40;;;;;;5015427;28;20472;-70
2023/07/20 00:12:28;;;;;;;4.40;3.20;;;20.20;74.90;;;;;;5015470;28;20955;-70
2023/07/20 00:14:54;;;;;;;7.03;4.17;;;20.10;75.20;;;;;;5014721;28;20828;-70
2023/07/20 00:17:21;;;;;;;6.97;4.30;;;20.10;75.70;;;;;;5014981;28;20443;-70
2023/07/20 00:19:52;;;;;;;5.87;4.13;;;20.10;76.20;;;;;;5014045;28;20460;-70
2023/07/20 00:22:18;;;;;;;3.53;3.10;;;20.00;76.40;;;;;;5015145;28;20454;-70
2023/07/20 00:24:45;;;;;;;4.70;3.80;;;19.90;76.80;;;;;;5015272;28;20448;-70
2023/07/20 00:27:12;;;;;;;4.00;3.60;;;19.90;77.30;;;;;;5015197;28;20483;-70
2023/07/20 00:29:39;;;;;;;4.07;3.37;;;19.90;77.50;;;;;;5015119;28;20447;-70
2023/07/20 00:32:06;;;;;;;4.10;3.23;;;20.00;77.50;;;;;;5015315;28;20451;-70
2023/07/20 00:34:34;;;;;;;4.47;3.03;;;20.00;77.40;;;;;;5013536;28;20970;-70
2023/07/20 00:37:02;;;;;;;6.07;3.10;;;20.10;77.20;;;;;;5019794;28;20494;-70
2023/07/20 00:39:29;;;;;;;4.40;3.40;;;20.20;76.90;;;;;;5026448;28;20956;-70
2023/07/20 00:41:55;;;;;;;6.00;2.83;;;20.20;76.90;;;;;;5021528;28;20452;-70
2023/07/20 00:44:22;;;;;;;6.73;2.80;;;20.20;77.00;;;;;;5018413;28;20454;-70
2023/07/20 00:46:49;;;;;;;3.70;3.40;;;20.20;77.20;;;;;;5016331;28;20494;-70
2023/07/20 00:49:16;;;;;;;5.53;4.17;;;20.30;77.70;;;;;;5015622;28;20971;-70
2023/07/20 00:51:43;;;;;;;7.60;4.50;;;20.20;77.30;;;;;;5015807;28;20476;-70
2023/07/20 00:54:11;;;;;;;5.57;3.80;;;20.20;77.40;;;;;;5013620;28;20486;-70
2023/07/20 00:56:38;;;;;;;5.30;4.07;;;20.20;78.30;;;;;;5015524;28;20546;-70
2023/07/20 00:59:05;;;;;;;8.13;3.60;;;20.10;79.30;;;;;;5014952;28;20517;-70
2023/07/20 01:01:32;;;;;;;5.37;3.63;;;20.10;80.60;;;;;;5014002;28;20481;-70
2023/07/20 01:03:59;;;;;;;7.00;4.60;;;20.10;82.00;;;;;;5014621;28;20456;-70
2023/07/20 01:06:35;;;;;;;5.93;3.87;;;20.10;83.10;;;;;;5014232;28;20495;-70
2023/07/20 01:09:09;;;;;;;5.77;4.10;;;20.00;84.70;;;;;;5013265;28;20431;-69
2023/07/20 01:11:44;;;;;;;12.77;5.30;;;19.90;86.00;;;;;;5014032;28;20470;-68
2023/07/20 01:14:13;;;;;;;5.60;4.30;;;19.80;87.40;;;;;;5020533;28;20431;-70
2023/07/20 01:16:39;;;;;;;7.97;4.53;;;19.70;88.90;;;;;;5021665;28;20439;-70
2023/07/20 01:19:06;;;;;;;7.13;3.87;;;19.70;89.90;;;;;;5016773;28;20485;-70
2023/07/20 01:21:42;;;;;;;5.03;4.10;;;19.60;90.20;;;;;;5015239;28;20980;-70
2023/07/20 01:24:54;;;;;;;5.23;3.37;;;19.60;90.40;;;;;;5014408;28;20443;-69
2023/07/20 01:27:57;;;;;;;6.67;3.50;;;19.50;90.30;;;;;;4984888;28;21034;-70
2023/07/20 01:30:43;;;;;;;3.73;3.43;;;19.40;90.50;;;;;;5021057;28;20473;-70
2023/07/20 01:33:15;;;;;;;4.03;3.63;;;19.40;90.80;;;;;;5021336;28;20435;-69
2023/07/20 01:35:44;;;;;;;4.30;3.00;;;19.40;90.90;;;;;;5020535;28;20434;-70
2023/07/20 01:38:12;;;;;;;5.83;3.67;;;19.40;91.00;;;;;;5020853;28;20458;-71
2023/07/20 01:40:40;;;;;;;8.10;3.37;;;19.40;90.90;;;;;;5020862;28;20474;-70
2023/07/20 01:43:07;;;;;;;5.57;3.30;;;19.30;90.90;;;;;;5021274;28;20454;-70
2023/07/20 01:45:33;;;;;;;4.70;4.10;;;19.30;90.80;;;;;;5021077;28;20458;-70
2023/07/20 01:48:00;;;;;;;8.17;3.80;;;19.20;90.60;;;;;;5020876;28;20470;-70
2023/07/20 01:50:28;;;;;;;4.83;4.43;;;19.10;91.10;;;;;;5020700;28;20467;-70
2023/07/20 01:52:55;;;;;;;4.70;4.30;;;18.90;91.70;;;;;;5020596;28;20808;-70
2023/07/20 01:55:21;;;;;;;6.20;4.83;;;18.90;91.80;;;;;;5020473;28;20443;-70
2023/07/20 01:57:48;;;;;;;7.27;4.87;;;18.80;92.20;;;;;;5020326;28;20439;-70
2023/07/20 02:00:16;;;;;;;5.10;4.60;;;18.70;92.80;;;;;;5020785;28;20502;-69
2023/07/20 02:02:43;;;;;;;6.47;4.90;;;18.70;92.80;;;;;;5020786;28;20469;-69
2023/07/20 02:05:10;;;;;;;6.10;5.30;;;18.70;92.80;;;;;;5020344;28;20865;-70
2023/07/20 02:07:38;;;;;;;6.10;4.53;;;18.60;93.10;;;;;;5020055;28;20483;-70
2023/07/20 02:10:05;;;;;;;6.97;4.77;;;18.60;93.40;;;;;;5020725;28;20479;-70
2023/07/20 02:12:33;;;;;;;6.10;5.30;;;18.60;93.60;;;;;;5020324;28;20451;-70
2023/07/20 02:15:02;;;;;;;5.40;4.90;;;18.50;93.70;;;;;;5020255;28;20446;-69
2023/07/20 02:17:29;;;;;;;6.00;5.27;;;18.60;93.90;;;;;;5020552;28;20439;-69
2023/07/20 02:19:57;;;;;;;8.13;5.10;;;18.60;93.90;;;;;;5020570;28;20478;-70
2023/07/20 02:22:24;;;;;;;15.20;4.90;;;18.50;93.90;;;;;;5020347;28;20451;-70
2023/07/20 02:24:52;;;;;;;10.63;4.63;;;18.50;94.00;;;;;;5020400;28;20447;-70
2023/07/20 02:27:19;;;;;;;5.93;4.90;;;18.50;93.90;;;;;;5019931;28;20490;-70
2023/07/20 02:29:46;;;;;;;6.53;5.07;;;18.50;94.00;;;;;;5020139;28;20521;-69
2023/07/20 02:32:13;;;;;;;9.33;4.87;;;18.50;94.20;;;;;;5019769;28;20549;-69
2023/07/20 02:34:39;;;;;;;9.23;5.80;;;18.50;94.30;;;;;;5020135;28;20451;-69
2023/07/20 02:37:06;;;;;;;6.90;5.00;;;18.50;94.40;;;;;;5020385;28;20447;-70
2023/07/20 02:39:33;;;;;;;4.97;4.50;;;18.50;94.20;;;;;;5017093;28;20467;-70
2023/07/20 02:42:02;;;;;;;7.43;5.10;;;18.50;94.20;;;;;;5017211;28;20455;-69
2023/07/20 02:44:28;;;;;;;5.73;5.00;;;18.50;94.20;;;;;;5017390;28;20451;-70
2023/07/20 02:46:55;;;;;;;4.70;4.30;;;18.50;94.00;;;;;;5016964;28;20490;-70
2023/07/20 02:49:22;;;;;;;8.33;4.70;;;18.50;94.30;;;;;;5016722;28;20497;-70
2023/07/20 02:51:49;;;;;;;6.40;5.27;;;18.40;94.20;;;;;;5019359;28;20984;-70
2023/07/20 02:54:16;;;;;;;5.87;4.70;;;18.40;94.20;;;;;;5029741;28;20439;-70
2023/07/20 02:56:43;;;;;;;5.17;4.10;;;18.40;94.30;;;;;;5024186;28;20451;-70
2023/07/20 02:59:11;;;;;;;7.33;4.80;;;18.40;94.30;;;;;;5019969;28;20443;-70
2023/07/20 03:01:38;;;;;;;9.53;4.60;;;18.50;94.40;;;;;;5018159;28;20474;-70
2023/07/20 03:04:05;;;;;;;8.13;4.27;;;18.50;94.20;;;;;;5017272;28;20455;-69
2023/07/20 03:06:32;;;;;;;6.13;5.07;;;18.50;94.10;;;;;;5015351;28;20829;-70
2023/07/20 03:08:58;;;;;;;7.60;4.83;;;18.40;93.90;;;;;;5016724;28;20439;-69
2023/07/20 03:11:25;;;;;;;6.63;4.73;;;18.50;93.90;;;;;;5017253;28;20484;-70
2023/07/20 03:13:52;;;;;;;7.27;4.80;;;18.50;93.70;;;;;;5015566;28;20458;-70
2023/07/20 03:16:21;;;;;;;9.30;4.20;;;18.50;93.80;;;;;;5016175;28;20948;-70
2023/07/20 03:18:47;;;;;;;7.33;4.40;;;18.40;93.70;;;;;;5015908;28;20451;-70
2023/07/20 03:21:14;;;;;;;9.43;4.40;;;18.40;93.60;;;;;;5015570;28;20988;-70
2023/07/20 03:23:42;;;;;;;10.57;4.90;;;18.40;93.40;;;;;;5015820;28;20450;-70
2023/07/20 03:26:09;;;;;;;13.90;4.50;;;18.50;93.80;;;;;;5015696;28;20454;-70
2023/07/20 03:28:36;;;;;;;7.40;4.93;;;18.50;93.50;;;;;;5018096;28;20475;-70
2023/07/20 03:31:03;;;;;;;5.93;4.53;;;18.50;93.50;;;;;;5018497;28;20467;-70
2023/07/20 03:33:32;;;;;;;7.17;4.63;;;18.40;93.50;;;;;;5015476;28;20812;-70
2023/07/20 03:35:59;;;;;;;5.33;4.83;;;18.50;93.40;;;;;;5015084;28;20447;-70
2023/07/20 03:38:27;;;;;;;8.80;5.20;;;18.50;93.40;;;;;;5015250;28;20953;-69
2023/07/20 03:40:55;;;;;;;15.50;5.53;;;18.50;93.30;;;;;;5015508;28;20467;-70
2023/07/20 03:43:22;;;;;;;10.13;4.97;;;18.50;93.20;;;;;;5014466;28;20451;-69
2023/07/20 03:45:49;;;;;;;8.07;5.07;;;18.50;93.20;;;;;;5015622;28;20815;-70
2023/07/20 03:48:17;;;;;;;10.90;5.43;;;18.50;93.40;;;;;;5015825;28;20487;-70
2023/07/20 03:50:46;;;;;;;5.73;5.23;;;18.40;93.70;;;;;;5014068;28;20476;-70
2023/07/20 03:53:14;;;;;;;4.83;4.30;;;18.40;93.80;;;;;;5015248;28;20454;-69
2023/07/20 03:55:41;;;;;;;7.90;5.30;;;18.30;93.90;;;;;;5015467;28;20462;-70
2023/07/20 03:58:08;;;;;;;8.70;4.93;;;18.30;94.20;;;;;;5016725;28;20868;-70
2023/07/20 04:00:35;;;;;;;5.87;5.27;;;18.20;94.50;;;;;;5017811;28;20881;-70
2023/07/20 04:03:02;;;;;;;9.27;4.60;;;18.20;95.00;;;;;;5019910;28;20458;-69
2023/07/20 04:05:29;;;;;;;9.63;4.73;;;18.20;94.90;;;;;;5023360;28;20787;-69
2023/07/20 04:07:57;;;;;;;8.77;5.23;;;18.10;94.80;;;;;;5025692;28;20494;-70
2023/07/20 04:10:24;;;;;;;9.40;5.73;;;18.20;94.80;;;;;;5019332;28;20549;-70
2023/07/20 04:12:50;;;;;;;6.47;4.90;;;18.10;94.80;;;;;;5018567;28;20821;-70
2023/07/20 04:15:17;;;;;;;7.03;4.73;;;18.10;94.90;;;;;;5018069;28;20447;-69
2023/07/20 04:17:45;;;;;;;7.53;5.60;;;18.10;95.10;;;;;;5017765;28;20527;-69
2023/07/20 04:20:13;;;;;;;6.60;5.73;;;18.10;95.10;;;;;;5017357;28;20554;-69
2023/07/20 04:22:40;;;;;;;7.20;5.33;;;18.10;95.30;;;;;;5016957;28;20471;-69
2023/07/20 04:25:10;;;;;;;6.50;5.80;;;18.10;95.40;;;;;;5016117;28;20474;-69
2023/07/20 04:27:37;;;;;;;8.27;5.93;;;18.10;95.50;;;;;;5015958;28;20510;-69
2023/07/20 04:30:04;;;;;;;6.10;5.50;;;18.10;95.50;;;;;;5014442;28;20474;-69
2023/07/20 04:32:33;;;;;;;8.23;5.23;;;18.10;95.60;;;;;;5015670;28;20447;-69
2023/07/20 04:35:00;;;;;;;11.07;6.33;;;18.10;95.80;;;;;;5014968;28;20952;-69
2023/07/20 04:37:27;;;;;;;9.30;6.10;;;18.10;95.90;;;;;;5015601;28;20440;-69
2023/07/20 04:39:53;;;;;;;6.93;6.20;;;18.10;96.10;;;;;;5015353;28;20479;-69
2023/07/20 04:42:21;;;;;;;9.13;5.83;;;18.10;96.10;;;;;;5015241;28;20451;-69
2023/07/20 04:44:48;;;;;;;8.20;5.47;;;18.10;96.00;;;;;;5014545;28;20447;-69
2023/07/20 04:47:15;;;;;;;7.40;6.40;;;18.10;95.90;;;;;;5014623;28;20987;-69
2023/07/20 04:49:42;;;;;;;7.70;5.40;;;18.10;95.90;;;;;;5014639;28;20452;-69
2023/07/20 04:52:09;;;;;;;14.37;6.23;;;18.20;96.10;;;;;;5014760;28;20455;-70
2023/07/20 04:54:35;;;;;;;9.90;6.53;;;18.20;96.30;;;;;;5014866;28;20450;-69
2023/07/20 04:57:02;;;;;;;8.70;6.17;;;18.20;96.30;;;;;;5014496;28;20465;-69
2023/07/20 04:59:30;;;;;;;8.90;6.07;;;18.30;96.30;;;;;;5014266;28;20813;-69
2023/07/20 05:01:57;;;;;;;9.83;7.47;;;18.30;96.30;;;;;;5013980;28;20834;-70
2023/07/20 05:04:24;;;;;;;8.90;6.50;;;18.30;96.40;;;;;;5022282;28;20509;-68
2023/07/20 05:06:50;;;;;;;10.50;6.83;;;18.40;96.40;;;;;;5029104;28;20455;-69
2023/07/20 05:09:17;;;;;;;10.13;6.70;;;18.40;96.30;;;;;;5030228;28;20875;-69
2023/07/20 05:11:45;;;;;;;11.10;6.53;;;18.50;96.10;;;;;;5023813;28;20471;-68
2023/07/20 05:14:12;;;;;;;8.03;7.00;;;18.60;96.30;;;;;;5022168;28;20451;-69
2023/07/20 05:16:40;;;;;;;9.73;7.30;;;18.70;96.20;;;;;;5022482;28;20447;-69
2023/07/20 05:19:07;;;;;;;9.90;8.90;;;18.80;96.30;;;;;;5021858;28;20456;-69
2023/07/20 05:21:34;;;;;;;10.73;8.10;;;18.80;96.30;;;;;;5021817;28;20468;-68
2023/07/20 05:24:01;;;;;;;10.47;7.60;;;18.90;96.10;;;;;;5022602;28;20797;-69
2023/07/20 05:26:28;;;;;;;24.20;9.93;;;18.90;95.90;;;;;;5022506;28;20514;-69
2023/07/20 05:28:54;;;;;;;12.10;8.37;;;18.90;96.10;;;;;;5021729;28;20487;-68
2023/07/20 05:31:21;;;;;;;24.60;10.03;;;18.90;96.10;;;;;;5022282;28;20503;-68
2023/07/20 05:33:49;;;;;;;9.70;8.43;;;18.90;96.30;;;;;;5022523;28;20451;-68
2023/07/20 05:36:16;;;;;;;12.37;9.13;;;19.00;96.20;;;;;;5023525;28;20455;-69
2023/07/20 05:38:42;;;;;;;15.33;10.20;;;19.00;96.00;;;;;;5023089;28;20451;-69
2023/07/20 05:41:10;;;;;;;10.67;9.50;;;19.00;95.90;;;;;;5023383;28;20467;-68
2023/07/20 05:43:37;;;;;;;14.90;10.20;;;19.00;95.60;;;;;;5026674;28;20447;-68
2023/07/20 05:46:05;;;;;;;14.07;10.47;;;19.00;95.80;;;;;;5023497;28;20451;-68
2023/07/20 05:48:32;;;;;;;13.53;9.90;;;19.10;96.00;;;;;;5021373;28;20482;-69
2023/07/20 05:51:00;;;;;;;13.33;10.33;;;19.10;95.90;;;;;;5022728;28;20467;-68
2023/07/20 05:53:27;;;;;;;12.87;10.80;;;19.20;96.10;;;;;;5022879;28;20539;-69
2023/07/20 05:55:54;;;;;;;11.43;10.23;;;19.10;95.80;;;;;;5023603;28;20506;-68
2023/07/20 05:58:21;;;;;;;13.70;12.30;;;19.20;95.90;;;;;;5022681;28;20475;-69
2023/07/20 06:00:49;;;;;;;15.20;13.60;;;19.20;95.30;;;;;;5017662;28;20995;-68
2023/07/20 06:03:17;;;;;;;17.63;13.80;;;19.20;95.10;;;;;;5022100;28;20451;-68
2023/07/20 06:05:44;;;;;;;15.43;13.97;;;19.20;95.00;;;;;;5021399;28;20454;-69
2023/07/20 06:08:13;;;;;;;18.03;14.90;;;19.20;95.20;;;;;;5022263;28;20483;-69
2023/07/20 06:10:39;;;;;;;20.13;15.10;;;19.30;95.30;;;;;;5020700;28;20472;-69
2023/07/20 06:13:07;;;;;;;20.50;14.23;;;19.40;95.50;;;;;;5022265;28;20452;-69
2023/07/20 06:15:36;;;;;;;14.77;13.27;;;19.50;94.50;;;;;;5025844;28;20474;-69
2023/07/20 06:18:04;;;;;;;15.23;13.87;;;19.50;94.40;;;;;;5026209;28;20454;-70
2023/07/20 06:20:31;;;;;;;14.43;13.03;;;19.50;94.60;;;;;;5026706;28;20475;-69
2023/07/20 06:22:58;;;;;;;15.43;13.83;;;19.50;94.60;;;;;;5026881;28;20455;-69
2023/07/20 06:25:26;;;;;;;15.73;14.07;;;19.50;94.40;;;;;;5026491;28;20509;-69
2023/07/20 06:27:53;;;;;;;15.50;13.90;;;19.60;94.60;;;;;;5026594;28;20494;-68
2023/07/20 06:30:20;;;;;;;14.07;12.77;;;19.70;94.90;;;;;;5026097;28;20475;-68
2023/07/20 06:32:47;;;;;;;18.27;12.10;;;19.80;94.70;;;;;;5024950;28;20442;-69
2023/07/20 06:35:15;;;;;;;13.73;12.30;;;20.00;94.30;;;;;;5025630;28;20514;-69
2023/07/20 06:37:43;;;;;;;13.07;11.77;;;20.20;93.70;;;;;;5025357;28;20463;-69
2023/07/20 06:40:12;;;;;;;13.90;12.53;;;20.30;93.00;;;;;;5025341;28;20474;-68
2023/07/20 06:42:42;;;;;;;13.23;11.83;;;20.40;92.50;;;;;;5025207;28;20505;-69
2023/07/20 06:45:10;;;;;;;13.97;12.50;;;20.40;91.90;;;;;;5025540;28;20450;-67
2023/07/20 06:47:40;;;;;;;12.93;11.50;;;20.40;91.90;;;;;;5025812;28;20490;-69
2023/07/20 06:50:10;;;;;;;12.63;11.43;;;20.40;91.70;;;;;;5024933;28;20471;-69
2023/07/20 06:52:37;;;;;;;13.40;12.17;;;20.40;91.90;;;;;;5026200;28;20458;-69
2023/07/20 06:55:09;;;;;;;13.37;11.97;;;20.20;91.70;;;;;;5031991;28;20455;-68
2023/07/20 06:57:36;;;;;;;15.13;11.27;;;20.10;92.10;;;;;;5027790;28;20515;-70
2023/07/20 07:00:17;;;;;;;12.40;11.40;;;20.10;92.20;;;;;;5025791;28;20467;-69
2023/07/20 07:02:47;;;;;;;12.90;11.70;;;20.00;92.10;;;;;;5026379;28;20432;-69
2023/07/20 07:05:15;;;;;;;11.57;10.40;;;19.90;91.80;;;;;;5024756;28;20808;-69
2023/07/20 07:07:42;;;;;;;10.63;9.63;;;19.90;92.20;;;;;;5024002;28;20479;-69
2023/07/20 07:10:12;;;;;;;12.37;9.87;;;20.00;92.30;;;;;;5025197;28;20472;-68
2023/07/20 07:12:39;;;;;;;11.53;9.80;;;20.10;92.60;;;;;;5024871;28;20456;-69
2023/07/20 07:15:10;;;;;;;13.57;9.50;;;20.20;92.60;;;;;;5025231;28;20447;-69
2023/07/20 07:17:37;;;;;;;9.20;7.70;;;20.40;92.20;;;;;;5025952;28;20474;-69
2023/07/20 07:20:04;;;;;;;7.50;6.80;;;20.60;92.00;;;;;;5035365;28;20482;-68
2023/07/20 07:22:33;;;;;;;7.00;6.30;;;20.80;91.70;;;;;;5031680;28;20451;-68
2023/07/20 07:25:00;;;;;;;6.67;6.10;;;21.10;90.80;;;;;;5027233;28;20452;-68
2023/07/20 07:27:27;;;;;;;8.93;6.50;;;21.40;89.20;;;;;;5025271;28;20451;-69
2023/07/20 07:29:55;;;;;;;7.30;6.70;;;21.70;87.20;;;;;;5026193;28;20476;-68
2023/07/20 07:32:23;;;;;;;9.37;7.50;;;21.90;86.20;;;;;;5024479;28;20436;-69
2023/07/20 07:34:50;;;;;;;8.87;7.87;;;21.90;83.70;;;;;;5024344;28;20447;-68
2023/07/20 07:37:19;;;;;;;9.10;8.13;;;21.70;83.60;;;;;;5023365;28;20447;-69
2023/07/20 07:39:46;;;;;;;8.10;7.40;;;21.60;84.50;;;;;;5023375;28;20988;-68
2023/07/20 07:42:13;;;;;;;7.13;6.20;;;21.50;85.40;;;;;;5023446;28;20451;-68
2023/07/20 07:44:40;;;;;;;6.90;6.20;;;21.50;86.70;;;;;;5022773;28;20487;-69
2023/07/20 07:47:07;;;;;;;6.40;5.17;;;21.70;85.90;;;;;;5023963;28;20458;-69
2023/07/20 07:49:37;;;;;;;5.03;4.57;;;21.50;83.00;;;;;;5023535;28;20491;-68
2023/07/20 07:52:07;;;;;;;4.53;4.13;;;21.70;83.60;;;;;;5024083;28;20454;-68
2023/07/20 07:54:35;;;;;;;4.97;4.57;;;21.90;83.40;;;;;;5023250;28;20441;-69
2023/07/20 07:57:02;;;;;;;4.50;4.20;;;22.20;81.20;;;;;;5027295;28;20460;-69
2023/07/20 07:59:35;;;;;;;4.67;4.30;;;22.40;79.20;;;;;;5023683;28;20447;-68
2023/07/20 08:02:02;;;;;;;4.80;3.80;;;22.60;78.30;;;;;;5022545;28;20949;-69
2023/07/20 08:04:30;;;;;;;4.27;3.87;;;22.80;77.90;;;;;;5024076;28;20448;-68
2023/07/20 08:07:00;;;;;;;4.67;3.90;;;23.00;75.70;;;;;;5023007;28;20451;-69
2023/07/20 08:09:27;;;;;;;4.83;4.33;;;23.30;76.00;;;;;;5023936;28;20491;-69
2023/07/20 08:11:56;;;;;;;4.90;3.50;;;23.60;73.60;;;;;;5023504;28;20450;-69
2023/07/20 08:14:24;;;;;;;2.80;2.60;;;23.70;71.00;;;;;;5022841;28;20454;-70
2023/07/20 08:16:51;;;;;;;3.40;2.87;;;23.70;69.40;;;;;;5027763;28;20884;-70
2023/07/20 08:19:23;;;;;;;2.93;2.27;;;23.50;69.30;;;;;;5025462;28;20450;-70
2023/07/20 08:21:51;;;;;;;3.10;2.80;;;23.40;68.90;;;;;;5026022;28;20462;-70
2023/07/20 08:27:05;;;;;;;6.43;3.87;;;23.60;68.90;;;;;;5025689;28;20442;-70
2023/07/20 08:29:35;;;;;;;2.90;2.70;;;23.90;69.70;;;;;;5024934;28;20471;-69
2023/07/20 08:32:03;;;;;;;2.80;2.60;;;24.30;68.70;;;;;;5024353;28;20447;-70
2023/07/20 08:34:29;;;;;;;6.00;2.60;;;24.60;66.80;;;;;;5024311;28;20483;-69
2023/07/20 08:37:00;;;;;;;4.10;2.27;;;24.70;63.10;;;;;;5022725;28;20925;-70
2023/07/20 08:39:28;;;;;;;2.17;2.07;;;24.60;62.70;;;;;;5023345;28;20419;-69
2023/07/20 08:41:56;;;;;;;2.83;2.33;;;24.40;63.50;;;;;;5023493;28;20839;-69
2023/07/20 08:44:24;;;;;;;3.97;3.00;;;24.20;64.20;;;;;;5023424;28;20453;-70
2023/07/20 08:46:55;;;;;;;3.50;2.60;;;24.20;64.80;;;;;;5022376;28;20487;-70
2023/07/20 08:49:23;;;;;;;1.60;1.50;;;24.20;64.70;;;;;;5023067;28;21002;-70
2023/07/20 08:51:57;;;;;;;2.50;2.20;;;24.20;61.30;;;;;;5022920;28;20844;-70
2023/07/20 08:54:33;;;;;;;3.40;1.90;;;24.30;59.90;;;;;;5023639;28;20530;-71
2023/07/20 08:57:03;;;;;;;1.93;1.83;;;24.60;61.30;;;;;;5023084;28;20451;-69
2023/07/20 08:59:32;;;;;;;2.10;1.83;;;24.90;60.20;;;;;;5023113;28;20471;-69
2023/07/20 09:02:00;;;;;;;2.33;2.13;;;25.30;58.80;;;;;;5023310;28;20451;-70
2023/07/20 09:04:28;;;;;;;2.50;2.30;;;25.60;56.50;;;;;;5022561;28;20447;-70
2023/07/20 09:06:56;;;;;;;2.40;2.10;;;25.70;55.50;;;;;;5022983;28;20443;-70
2023/07/20 09:09:23;;;;;;;2.33;2.00;;;25.70;56.50;;;;;;5022442;28;20547;-70
2023/07/20 09:11:51;;;;;;;2.50;2.00;;;25.60;56.50;;;;;;5022400;28;20451;-69
2023/07/20 09:14:24;;;;;;;1.57;1.47;;;25.50;56.90;;;;;;5023588;28;20448;-70
2023/07/20 09:16:54;;;;;;;2.40;1.37;;;25.50;56.40;;;;;;5022607;28;20438;-70
2023/07/20 09:19:23;;;;;;;1.77;1.67;;;25.60;56.70;;;;;;5023320;28;20475;-70
2023/07/20 09:21:54;;;;;;;1.70;1.50;;;25.90;56.70;;;;;;5023238;28;20498;-69
2023/07/20 09:24:25;;;;;;;1.60;1.50;;;26.20;55.00;;;;;;5022946;28;20439;-70
2023/07/20 09:26:54;;;;;;;2.10;1.70;;;26.40;53.60;;;;;;5022226;28;20506;-70
2023/07/20 09:29:23;;;;;;;1.20;1.10;;;26.50;54.40;;;;;;5022884;28;20598;-70
2023/07/20 09:32:01;;;;;;;1.70;1.60;;;26.70;53.20;;;;;;5023641;28;20502;-69
2023/07/20 09:34:32;;;;;;;1.40;1.30;;;27.00;51.70;;;;;;5021919;28;20471;-70
2023/07/20 09:37:01;;;;;;;1.20;1.10;;;27.20;51.00;;;;;;5031856;28;20468;-70
2023/07/20 09:39:30;;;;;;;1.23;1.13;;;27.50;50.40;;;;;;5031868;28;20451;-67
2023/07/20 09:42:01;;;;;;;5.73;1.73;;;27.70;49.40;;;;;;5024948;28;20543;-68
2023/07/20 09:44:37;;;;;;;2.03;1.83;;;28.00;48.50;;;;;;5030454;28;20458;-70
2023/07/20 09:47:06;;;;;;;1.83;1.63;;;28.20;47.10;;;;;;5025476;28;20451;-69
2023/07/20 09:49:40;;;;;;;1.50;1.40;;;28.40;46.90;;;;;;5028901;28;20490;-68
2023/07/20 09:52:07;;;;;;;1.30;1.27;;;28.80;47.30;;;;;;5025997;28;20438;-68
2023/07/20 09:54:37;;;;;;;1.83;1.40;;;29.30;46.60;;;;;;5025445;28;20482;-69
2023/07/20 09:57:09;;;;;;;1.70;1.30;;;29.90;45.20;;;;;;5026068;28;20494;-70
2023/07/20 09:59:36;;;;;;;2.00;1.27;;;30.40;44.00;;;;;;5024871;28;20497;-69
2023/07/20 10:02:13;;;;;;;0.87;0.60;;;30.60;41.30;;;;;;5025274;28;20455;-69
2023/07/20 10:04:41;;;;;;;2.30;1.10;;;30.80;40.90;;;;;;5023659;28;20446;-69
2023/07/20 10:07:12;;;;;;;1.40;1.10;;;31.30;40.60;;;;;;5025137;28;20466;-70
2023/07/20 10:09:41;;;;;;;1.20;0.90;;;31.50;38.50;;;;;;5023463;28;20516;-69
2023/07/20 10:12:12;;;;;;;0.80;0.80;;;31.40;38.20;;;;;;5026999;28;20449;-69
2023/07/20 10:14:45;;;;;;;1.53;1.40;;;31.30;38.90;;;;;;5028233;28;20435;-69
2023/07/20 10:17:14;;;;;;;1.17;0.90;;;31.00;38.80;;;;;;5025972;28;20443;-69
2023/07/20 10:19:45;;;;;;;1.37;1.27;;;31.00;37.70;;;;;;5025299;28;20834;-68
2023/07/20 10:22:16;;;;;;;1.00;0.97;;;31.20;37.50;;;;;;5024550;28;20451;-68
2023/07/20 10:24:45;;;;;;;1.03;0.87;;;31.30;37.20;;;;;;5024164;28;20948;-69
2023/07/20 10:27:17;;;;;;;2.10;0.80;;;31.40;37.50;;;;;;5025351;28;20453;-68
2023/07/20 10:29:44;;;;;;;1.67;1.27;;;31.60;35.40;;;;;;5022584;28;20502;-68
2023/07/20 10:32:11;;;;;;;0.80;0.80;;;31.50;35.30;;;;;;5024752;28;20447;-69
2023/07/20 10:34:38;;;;;;;1.10;0.83;;;31.60;35.60;;;;;;5028014;28;20459;-69
2023/07/20 10:37:06;;;;;;;1.10;0.77;;;31.60;35.40;;;;;;5024274;28;20463;-69
2023/07/20 10:39:35;;;;;;;0.70;0.70;;;31.60;34.40;;;;;;5023164;28;20542;-68
2023/07/20 10:42:08;;;;;;;3.17;0.77;;;31.30;35.40;;;;;;5024026;28;20478;-70
2023/07/20 10:44:39;;;;;;;1.17;1.00;;;31.00;37.00;;;;;;5024462;28;20438;-68
2023/07/20 10:47:11;;;;;;;2.80;1.53;;;30.80;37.60;;;;;;5024947;28;20504;-68
2023/07/20 10:49:59;;;;;;;1.57;1.07;;;30.70;38.30;;;;;;5024187;28;20514;-67
2023/07/20 10:52:27;;;;;;;1.30;1.00;;;31.20;37.70;;;;;;5025065;28;20909;-67
2023/07/20 10:54:54;;;;;;;3.03;0.83;;;31.80;36.30;;;;;;5024505;28;20443;-68
2023/07/20 10:57:30;;;;;;;0.77;0.77;;;32.00;32.90;;;;;;5024520;28;20455;-68
2023/07/20 11:00:12;;;;;;;0.73;0.73;;;32.20;33.90;;;;;;5023786;28;20454;-69
2023/07/20 11:02:47;;;;;;;0.60;0.60;;;32.10;34.10;;;;;;5023914;28;20447;-68
2023/07/20 11:05:37;;;;;;;2.10;0.90;;;32.00;35.40;;;;;;5023658;28;20450;-68
2023/07/20 11:08:14;;;;;;;1.83;1.03;;;31.70;35.40;;;;;;5024245;28;20541;-68
2023/07/20 11:10:41;;;;;;;0.83;0.80;;;31.90;35.90;;;;;;5024289;28;20500;-67
2023/07/20 11:13:18;;;;;;;1.50;0.90;;;33.00;35.40;;;;;;5024512;28;20940;-69
2023/07/20 11:16:05;;;;;;;0.77;0.77;;;34.50;33.70;;;;;;5025515;28;20451;-69
2023/07/20 11:18:44;;;;;;;0.70;0.70;;;35.10;30.00;;;;;;5025047;28;20431;-68
2023/07/20 11:21:12;;;;;;;3.80;0.90;;;35.50;29.30;;;;;;5024840;28;20462;-69
2023/07/20 11:23:41;;;;;;;1.90;1.00;;;35.60;28.10;;;;;;5024426;28;20451;-69
2023/07/20 11:26:08;;;;;;;1.63;0.73;;;35.40;27.50;;;;;;5024853;28;20454;-69
2023/07/20 11:28:36;;;;;;;0.90;0.90;;;35.20;26.60;;;;;;5024678;28;20447;-68
2023/07/20 11:31:04;;;;;;;0.90;0.80;;;35.20;27.40;;;;;;5024620;28;20473;-69
2023/07/20 11:33:31;;;;;;;1.00;0.80;;;35.30;27.80;;;;;;5023536;28;20458;-68
2023/07/20 11:35:58;;;;;;;2.40;0.80;;;35.90;26.90;;;;;;5023799;28;20443;-69
2023/07/20 11:38:28;;;;;;;1.00;0.90;;;36.80;26.20;;;;;;5023261;28;20215;-70
2023/07/20 11:40:58;;;;;;;1.20;0.77;;;37.60;24.90;;;;;;5023659;28;20649;-68
2023/07/20 11:43:26;;;;;;;0.70;0.60;;;38.30;23.90;;;;;;5023115;28;20295;-68
2023/07/20 11:45:54;;;;;;;1.25;0.95;;;39.00;24.20;;;;;;5022923;28;20207;-70
2023/07/20 11:48:25;;;;;;;1.23;0.75;;;39.90;23.10;;;;;;5023533;28;20279;-70
2023/07/20 11:50:53;;;;;;;1.75;0.77;;;40.40;21.90;;;;;;5023886;28;20244;-69
2023/07/20 11:53:21;;;;;;;1.98;0.98;;;41.00;21.60;;;;;;5028467;28;20208;-70
2023/07/20 11:55:47;;;;;;;2.47;0.80;;;40.90;22.10;;;;;;5035463;28;20287;-70
2023/07/20 11:58:16;;;;;;;1.65;0.80;;;40.60;22.90;;;;;;5028425;28;20208;-70
2023/07/20 12:00:45;;;;;;;3.55;0.95;;;40.00;23.80;;;;;;5023831;28;20645;-70
2023/07/20 12:03:13;;;;;;;2.75;0.63;;;39.10;23.80;;;;;;5024602;28;20204;-69
2023/07/20 12:05:41;;;;;;;2.88;1.00;;;38.10;24.40;;;;;;5023827;28;20207;-70
2023/07/20 12:08:12;;;;;;;0.90;0.70;;;37.30;25.70;;;;;;5023379;28;20207;-70
2023/07/20 12:10:43;;;;;;;0.93;0.80;;;36.40;26.20;;;;;;5023555;28;20235;-69
2023/07/20 12:13:11;;;;;;;1.07;0.80;;;35.50;27.00;;;;;;5023864;28;20189;-70
2023/07/20 12:15:39;;;;;;;2.50;0.87;;;34.90;28.00;;;;;;5023370;28;20486;-70
2023/07/20 12:18:06;;;;;;;1.20;0.90;;;34.70;28.90;;;;;;5023443;28;20458;-70
2023/07/20 12:23:19;;;;;;;1.37;0.90;;;34.20;28.50;;;;;;5023266;28;20439;-70
2023/07/20 12:25:47;;;;;;;1.97;0.90;;;33.90;28.60;;;;;;5023127;28;20462;-69
2023/07/20 12:28:21;;;;;;;3.00;1.10;;;33.80;29.20;;;;;;5023052;28;20457;-69
2023/07/20 12:30:56;;;;;;;0.70;0.67;;;34.20;28.40;;;;;;5023250;28;20477;-68
2023/07/20 12:33:24;;;;;;;1.67;0.90;;;35.00;26.90;;;;;;5030754;28;20458;-69
2023/07/20 12:35:55;;;;;;;1.20;0.87;;;35.90;25.20;;;;;;5027881;28;20458;-70
2023/07/20 12:38:24;;;;;;;1.70;0.77;;;36.00;23.70;;;;;;5027491;28;20477;-69
2023/07/20 12:40:51;;;;;;;1.00;0.83;;;35.70;25.10;;;;;;5028860;28;20462;-70
2023/07/20 12:43:19;;;;;;;1.80;0.80;;;35.00;26.00;;;;;;5028229;28;20450;-69
2023/07/20 12:45:47;;;;;;;1.03;0.60;;;34.30;27.50;;;;;;5028098;28;20457;-69
2023/07/20 12:48:13;;;;;;;1.87;0.90;;;33.60;27.50;;;;;;5029134;28;20450;-69
2023/07/20 12:50:41;;;;;;;1.03;0.93;;;33.70;29.10;;;;;;5035773;28;20486;-68
2023/07/20 12:53:09;;;;;;;0.90;0.70;;;33.90;28.00;;;;;;5025428;28;20450;-69
2023/07/20 12:55:38;;;;;;;1.87;0.80;;;34.50;28.80;;;;;;5025145;28;20459;-69